sensor_id;sensor_type;location;lat;lon;timestamp;temperature;humidity
33837;DHT22;20140;49.356;8.812;2024-01-27T00:01:11;1.10;99.90
33837;DHT22;20140;49.356;8.812;2024-01-27T00:03:36;0.90;99.90
33837;DHT22;20140;49.356;8.812;2024-01-27T00:06:02;1.00;99.90
33837;DHT22;20140;49.356;8.812;2024-01-27T00:08:27;0.90;99.90
33837;DHT22;20140;49.356;8.812;2024-01-27T00:10:53;0.90;99.90
33837;DHT22;20140;49.356;8.812;2024-01-27T00:13:18;0.80;99.90
33837;DHT22;20140;49.356;8.812;2024-01-27T00:15:44;0.80;99.90
33837;DHT22;20140;49.356;8.812;2024-01-27T00:18:09;0.80;99.90
33837;DHT22;20140;49.356;8.812;2024-01-27T00:20:35;0.80;99.90
33837;DHT22;20140;49.356;8.812;2024-01-27T00:23:01;0.80;99.90
33837;DHT22;20140;49.356;8.812;2024-01-27T00:25:26;0.70;99.90
33837;DHT22;20140;49.356;8.812;2024-01-27T00:27:52;0.80;99.90
33837;DHT22;20140;49.356;8.812;2024-01-27T00:30:17;0.80;99.90
33837;DHT22;20140;49.356;8.812;2024-01-27T00:32:43;0.70;99.90
33837;DHT22;20140;49.356;8.812;2024-01-27T00:35:08;0.70;99.90
33837;DHT22;20140;49.356;8.812;2024-01-27T00:37:36;0.70;99.90
33837;DHT22;20140;49.356;8.812;2024-01-27T00:40:02;0.70;99.90
33837;DHT22;20140;49.356;8.812;2024-01-27T00:42:28;0.70;99.90
33837;DHT22;20140;49.356;8.812;2024-01-27T00:44:53;0.60;99.90
33837;DHT22;20140;49.356;8.812;2024-01-27T00:47:19;0.50;99.90
33837;DHT22;20140;49.356;8.812;2024-01-27T00:49:44;0.50;99.90
33837;DHT22;20140;49.356;8.812;2024-01-27T00:52:10;0.50;99.90
33837;DHT22;20140;49.356;8.812;2024-01-27T00:54:35;0.50;99.90
33837;DHT22;20140;49.356;8.812;2024-01-27T00:57:01;0.50;99.90
33837;DHT22;20140;49.356;8.812;2024-01-27T00:59:27;0.50;99.90
33837;DHT22;20140;49.356;8.812;2024-01-27T01:01:52;0.50;99.90
33837;DHT22;20140;49.356;8.812;2024-01-27T01:04:18;0.60;99.90
33837;DHT22;20140;49.356;8.812;2024-01-27T01:06:43;0.50;99.90
33837;DHT22;20140;49.356;8.812;2024-01-27T01:09:12;0.60;99.90
33837;DHT22;20140;49.356;8.812;2024-01-27T01:11:37;0.50;99.90
33837;DHT22;20140;49.356;8.812;2024-01-27T01:14:03;0.40;99.90
33837;DHT22;20140;49.356;8.812;2024-01-27T01:16:28;0.50;99.90
33837;DHT22;20140;49.356;8.812;2024-01-27T01:18:54;0.40;99.90
33837;DHT22;20140;49.356;8.812;2024-01-27T01:21:19;0.30;99.90
33837;DHT22;20140;49.356;8.812;2024-01-27T01:23:45;0.40;99.90
33837;DHT22;20140;49.356;8.812;2024-01-27T01:26:10;0.30;99.90
33837;DHT22;20140;49.356;8.812;2024-01-27T01:28:36;0.30;99.90
33837;DHT22;20140;49.356;8.812;2024-01-27T01:31:02;0.30;99.90
33837;DHT22;20140;49.356;8.812;2024-01-27T01:33:28;0.40;99.90
33837;DHT22;20140;49.356;8.812;2024-01-27T01:35:53;0.30;99.90
33837;DHT22;20140;49.356;8.812;2024-01-27T01:38:21;0.20;99.90
33837;DHT22;20140;49.356;8.812;2024-01-27T01:40:47;0.30;99.90
33837;DHT22;20140;49.356;8.812;2024-01-27T01:43:12;0.30;99.90
33837;DHT22;20140;49.356;8.812;2024-01-27T01:45:38;0.20;99.90
33837;DHT22;20140;49.356;8.812;2024-01-27T01:48:04;0.10;99.90
33837;DHT22;20140;49.356;8.812;2024-01-27T01:50:32;0.30;99.90
33837;DHT22;20140;49.356;8.812;2024-01-27T01:52:58;0.30;99.90
33837;DHT22;20140;49.356;8.812;2024-01-27T01:55:23;0.20;99.90
33837;DHT22;20140;49.356;8.812;2024-01-27T01:57:49;0.20;99.90
33837;DHT22;20140;49.356;8.812;2024-01-27T02:00:15;0.20;99.90
33837;DHT22;20140;49.356;8.812;2024-01-27T02:05:10;0.10;99.90
33837;DHT22;20140;49.356;8.812;2024-01-27T02:07:36;0.00;99.90
33837;DHT22;20140;49.356;8.812;2024-01-27T02:10:02;0.10;99.90
33837;DHT22;20140;49.356;8.812;2024-01-27T02:12:27;0.10;99.90
33837;DHT22;20140;49.356;8.812;2024-01-27T02:14:53;0.00;99.90
33837;DHT22;20140;49.356;8.812;2024-01-27T02:17:21;0.00;99.90
33837;DHT22;20140;49.356;8.812;2024-01-27T02:19:46;-0.10;99.90
33837;DHT22;20140;49.356;8.812;2024-01-27T02:22:12;0.00;99.90
33837;DHT22;20140;49.356;8.812;2024-01-27T02:24:37;0.00;99.90
33837;DHT22;20140;49.356;8.812;2024-01-27T02:27:03;-0.10;99.90
33837;DHT22;20140;49.356;8.812;2024-01-27T02:29:28;-0.20;99.90
33837;DHT22;20140;49.356;8.812;2024-01-27T02:31:55;-0.10;99.90
33837;DHT22;20140;49.356;8.812;2024-01-27T02:41:38;-0.20;99.90
33837;DHT22;20140;49.356;8.812;2024-01-27T02:44:07;-0.20;99.90
33837;DHT22;20140;49.356;8.812;2024-01-27T02:46:33;-0.20;99.90
33837;DHT22;20140;49.356;8.812;2024-01-27T02:48:58;-0.20;99.90
33837;DHT22;20140;49.356;8.812;2024-01-27T02:51:24;-0.20;99.90
33837;DHT22;20140;49.356;8.812;2024-01-27T02:53:49;-0.20;99.90
33837;DHT22;20140;49.356;8.812;2024-01-27T02:56:18;-0.30;99.90
33837;DHT22;20140;49.356;8.812;2024-01-27T02:58:43;-0.40;99.90
33837;DHT22;20140;49.356;8.812;2024-01-27T03:01:09;-0.40;99.90
33837;DHT22;20140;49.356;8.812;2024-01-27T03:03:34;-0.30;99.90
33837;DHT22;20140;49.356;8.812;2024-01-27T03:06:00;-0.30;99.90
33837;DHT22;20140;49.356;8.812;2024-01-27T03:08:26;-0.30;99.90
33837;DHT22;20140;49.356;8.812;2024-01-27T03:10:52;-0.30;99.90
33837;DHT22;20140;49.356;8.812;2024-01-27T03:13:17;-0.30;99.90
33837;DHT22;20140;49.356;8.812;2024-01-27T03:15:44;-0.30;99.90
33837;DHT22;20140;49.356;8.812;2024-01-27T03:18:10;-0.40;99.90
33837;DHT22;20140;49.356;8.812;2024-01-27T03:20:35;-0.40;99.90
33837;DHT22;20140;49.356;8.812;2024-01-27T03:23:01;-0.40;99.90
33837;DHT22;20140;49.356;8.812;2024-01-27T03:25:29;-0.40;99.90
33837;DHT22;20140;49.356;8.812;2024-01-27T03:27:54;-0.50;99.90
33837;DHT22;20140;49.356;8.812;2024-01-27T03:30:20;-0.60;99.90
33837;DHT22;20140;49.356;8.812;2024-01-27T03:32:46;-0.60;99.90
33837;DHT22;20140;49.356;8.812;2024-01-27T03:35:11;-0.70;99.90
33837;DHT22;20140;49.356;8.812;2024-01-27T03:37:37;-0.70;99.90
33837;DHT22;20140;49.356;8.812;2024-01-27T03:40:03;-0.70;99.90
33837;DHT22;20140;49.356;8.812;2024-01-27T03:42:30;-0.80;99.90
33837;DHT22;20140;49.356;8.812;2024-01-27T03:44:56;-0.70;99.90
33837;DHT22;20140;49.356;8.812;2024-01-27T03:47:21;-0.80;99.90
33837;DHT22;20140;49.356;8.812;2024-01-27T03:49:47;-0.90;99.90
33837;DHT22;20140;49.356;8.812;2024-01-27T03:52:12;-0.90;99.90
33837;DHT22;20140;49.356;8.812;2024-01-27T03:54:38;-1.00;99.90
33837;DHT22;20140;49.356;8.812;2024-01-27T03:57:04;-0.90;99.90
33837;DHT22;20140;49.356;8.812;2024-01-27T03:59:29;-0.90;99.90
33837;DHT22;20140;49.356;8.812;2024-01-27T04:01:55;-0.90;99.90
33837;DHT22;20140;49.356;8.812;2024-01-27T04:04:23;-0.80;99.90
33837;DHT22;20140;49.356;8.812;2024-01-27T04:06:49;-0.90;99.90
33837;DHT22;20140;49.356;8.812;2024-01-27T04:09:15;-0.90;99.90
33837;DHT22;20140;49.356;8.812;2024-01-27T04:11:41;-0.90;99.90
33837;DHT22;20140;49.356;8.812;2024-01-27T04:14:06;-0.90;99.90
33837;DHT22;20140;49.356;8.812;2024-01-27T04:16:32;-0.90;99.90
33837;DHT22;20140;49.356;8.812;2024-01-27T04:18:58;-0.80;99.90
33837;DHT22;20140;49.356;8.812;2024-01-27T04:21:23;-0.80;99.90
33837;DHT22;20140;49.356;8.812;2024-01-27T04:23:49;-0.90;99.90
33837;DHT22;20140;49.356;8.812;2024-01-27T04:26:15;-0.90;99.90
33837;DHT22;20140;49.356;8.812;2024-01-27T04:28:41;-0.90;99.90
33837;DHT22;20140;49.356;8.812;2024-01-27T04:31:06;-1.00;99.90
33837;DHT22;20140;49.356;8.812;2024-01-27T04:33:32;-1.00;99.90
33837;DHT22;20140;49.356;8.812;2024-01-27T04:35:58;-1.00;99.90
33837;DHT22;20140;49.356;8.812;2024-01-27T04:38:23;-0.90;99.90
33837;DHT22;20140;49.356;8.812;2024-01-27T04:40:50;-1.00;99.90
33837;DHT22;20140;49.356;8.812;2024-01-27T04:43:18;-1.00;99.90
33837;DHT22;20140;49.356;8.812;2024-01-27T04:45:45;-1.10;99.90
33837;DHT22;20140;49.356;8.812;2024-01-27T04:48:12;-1.20;99.90
33837;DHT22;20140;49.356;8.812;2024-01-27T04:50:37;-1.10;99.90
33837;DHT22;20140;49.356;8.812;2024-01-27T04:53:03;-1.10;99.90
33837;DHT22;20140;49.356;8.812;2024-01-27T04:55:29;-1.10;99.90
33837;DHT22;20140;49.356;8.812;2024-01-27T04:57:55;-1.10;99.90
33837;DHT22;20140;49.356;8.812;2024-01-27T05:00:20;-1.10;99.90
33837;DHT22;20140;49.356;8.812;2024-01-27T05:02:46;-1.10;99.90
33837;DHT22;20140;49.356;8.812;2024-01-27T05:05:12;-1.20;99.90
33837;DHT22;20140;49.356;8.812;2024-01-27T05:07:38;-1.30;99.90
33837;DHT22;20140;49.356;8.812;2024-01-27T05:10:04;-1.30;99.90
33837;DHT22;20140;49.356;8.812;2024-01-27T05:12:30;-1.20;99.90
33837;DHT22;20140;49.356;8.812;2024-01-27T05:14:55;-1.20;99.90
33837;DHT22;20140;49.356;8.812;2024-01-27T05:17:21;-1.30;99.90
33837;DHT22;20140;49.356;8.812;2024-01-27T05:19:46;-1.30;99.90
33837;DHT22;20140;49.356;8.812;2024-01-27T05:22:12;-1.30;99.90
33837;DHT22;20140;49.356;8.812;2024-01-27T05:24:37;-1.40;99.90
33837;DHT22;20140;49.356;8.812;2024-01-27T05:27:03;-1.40;99.90
33837;DHT22;20140;49.356;8.812;2024-01-27T05:29:29;-1.40;99.90
33837;DHT22;20140;49.356;8.812;2024-01-27T05:31:57;-1.40;99.90
33837;DHT22;20140;49.356;8.812;2024-01-27T05:34:22;-1.50;99.90
33837;DHT22;20140;49.356;8.812;2024-01-27T05:36:48;-1.50;99.90
33837;DHT22;20140;49.356;8.812;2024-01-27T05:39:14;-1.40;99.90
33837;DHT22;20140;49.356;8.812;2024-01-27T05:41:39;-1.30;99.90
33837;DHT22;20140;49.356;8.812;2024-01-27T05:44:05;-1.30;99.90
33837;DHT22;20140;49.356;8.812;2024-01-27T05:46:30;-1.40;99.90
33837;DHT22;20140;49.356;8.812;2024-01-27T05:48:56;-1.50;99.90
33837;DHT22;20140;49.356;8.812;2024-01-27T05:51:26;-1.50;99.90
33837;DHT22;20140;49.356;8.812;2024-01-27T05:53:52;-1.40;99.90
33837;DHT22;20140;49.356;8.812;2024-01-27T05:56:18;-1.40;99.90
33837;DHT22;20140;49.356;8.812;2024-01-27T05:58:46;-1.40;99.90
33837;DHT22;20140;49.356;8.812;2024-01-27T06:01:11;-1.40;99.90
33837;DHT22;20140;49.356;8.812;2024-01-27T06:03:37;-1.40;99.90
33837;DHT22;20140;49.356;8.812;2024-01-27T06:06:02;-1.40;99.90
33837;DHT22;20140;49.356;8.812;2024-01-27T06:08:28;-1.40;99.90
33837;DHT22;20140;49.356;8.812;2024-01-27T06:10:56;-1.30;99.90
33837;DHT22;20140;49.356;8.812;2024-01-27T06:13:21;-1.40;99.90
33837;DHT22;20140;49.356;8.812;2024-01-27T06:15:47;-1.30;99.90
33837;DHT22;20140;49.356;8.812;2024-01-27T06:18:12;-1.40;99.90
33837;DHT22;20140;49.356;8.812;2024-01-27T06:20:38;-1.50;99.90
33837;DHT22;20140;49.356;8.812;2024-01-27T06:23:05;-1.40;99.90
33837;DHT22;20140;49.356;8.812;2024-01-27T06:25:32;-1.40;99.90
33837;DHT22;20140;49.356;8.812;2024-01-27T06:27:57;-1.40;99.90
33837;DHT22;20140;49.356;8.812;2024-01-27T06:30:23;-1.50;99.90
33837;DHT22;20140;49.356;8.812;2024-01-27T06:32:48;-1.60;99.90
33837;DHT22;20140;49.356;8.812;2024-01-27T06:35:14;-1.70;99.90
33837;DHT22;20140;49.356;8.812;2024-01-27T06:37:40;-1.70;99.90
33837;DHT22;20140;49.356;8.812;2024-01-27T06:40:06;-1.60;99.90
33837;DHT22;20140;49.356;8.812;2024-01-27T06:42:32;-1.50;99.90
33837;DHT22;20140;49.356;8.812;2024-01-27T06:44:58;-1.50;99.90
33837;DHT22;20140;49.356;8.812;2024-01-27T06:47:23;-1.60;99.90
33837;DHT22;20140;49.356;8.812;2024-01-27T06:49:49;-1.60;99.90
33837;DHT22;20140;49.356;8.812;2024-01-27T06:52:14;-1.70;99.90
33837;DHT22;20140;49.356;8.812;2024-01-27T06:54:40;-1.70;99.90
33837;DHT22;20140;49.356;8.812;2024-01-27T06:57:18;-1.70;99.90
33837;DHT22;20140;49.356;8.812;2024-01-27T06:59:44;-1.50;99.90
33837;DHT22;20140;49.356;8.812;2024-01-27T07:02:12;-1.50;99.90
33837;DHT22;20140;49.356;8.812;2024-01-27T07:04:39;-1.40;99.90
33837;DHT22;20140;49.356;8.812;2024-01-27T07:07:05;-1.50;99.90
33837;DHT22;20140;49.356;8.812;2024-01-27T07:09:30;-1.40;99.90
33837;DHT22;20140;49.356;8.812;2024-01-27T07:11:55;-1.40;99.90
33837;DHT22;20140;49.356;8.812;2024-01-27T07:14:21;-1.50;99.90
33837;DHT22;20140;49.356;8.812;2024-01-27T07:16:47;-1.50;99.90
33837;DHT22;20140;49.356;8.812;2024-01-27T07:19:12;-1.50;99.90
33837;DHT22;20140;49.356;8.812;2024-01-27T07:21:39;-1.60;99.90
33837;DHT22;20140;49.356;8.812;2024-01-27T07:24:04;-1.60;99.90
33837;DHT22;20140;49.356;8.812;2024-01-27T07:26:30;-1.60;99.90
33837;DHT22;20140;49.356;8.812;2024-01-27T07:28:56;-1.60;99.90
33837;DHT22;20140;49.356;8.812;2024-01-27T07:31:22;-1.50;99.90
33837;DHT22;20140;49.356;8.812;2024-01-27T07:33:49;-1.60;99.90
33837;DHT22;20140;49.356;8.812;2024-01-27T07:36:15;-1.60;99.90
33837;DHT22;20140;49.356;8.812;2024-01-27T07:38:41;-1.60;99.90
33837;DHT22;20140;49.356;8.812;2024-01-27T07:41:06;-1.60;99.90
33837;DHT22;20140;49.356;8.812;2024-01-27T07:43:32;-1.60;99.90
33837;DHT22;20140;49.356;8.812;2024-01-27T07:45:57;-1.50;99.90
33837;DHT22;20140;49.356;8.812;2024-01-27T07:48:23;-1.50;99.90
33837;DHT22;20140;49.356;8.812;2024-01-27T07:50:48;-1.50;99.90
33837;DHT22;20140;49.356;8.812;2024-01-27T07:53:16;-1.50;99.90
33837;DHT22;20140;49.356;8.812;2024-01-27T07:55:41;-1.50;99.90
33837;DHT22;20140;49.356;8.812;2024-01-27T07:58:07;-1.50;99.90
33837;DHT22;20140;49.356;8.812;2024-01-27T08:00:32;-1.50;99.90
33837;DHT22;20140;49.356;8.812;2024-01-27T08:02:58;-1.40;99.90
33837;DHT22;20140;49.356;8.812;2024-01-27T08:05:24;-1.40;99.90
33837;DHT22;20140;49.356;8.812;2024-01-27T08:14:34;-1.30;99.90
33837;DHT22;20140;49.356;8.812;2024-01-27T08:17:00;-1.20;99.90
33837;DHT22;20140;49.356;8.812;2024-01-27T08:19:28;-1.10;99.90
33837;DHT22;20140;49.356;8.812;2024-01-27T08:21:54;-1.10;99.90
33837;DHT22;20140;49.356;8.812;2024-01-27T08:24:21;-1.00;99.90
33837;DHT22;20140;49.356;8.812;2024-01-27T08:26:49;-0.90;99.90
33837;DHT22;20140;49.356;8.812;2024-01-27T08:29:15;-0.80;99.90
33837;DHT22;20140;49.356;8.812;2024-01-27T08:31:41;-0.80;99.90
33837;DHT22;20140;49.356;8.812;2024-01-27T08:34:08;-0.80;99.90
33837;DHT22;20140;49.356;8.812;2024-01-27T08:36:35;-0.80;99.90
33837;DHT22;20140;49.356;8.812;2024-01-27T08:39:00;-0.90;99.90
33837;DHT22;20140;49.356;8.812;2024-01-27T08:41:26;-0.90;99.90
33837;DHT22;20140;49.356;8.812;2024-01-27T08:43:52;-1.00;99.90
33837;DHT22;20140;49.356;8.812;2024-01-27T08:46:17;-1.00;99.90
33837;DHT22;20140;49.356;8.812;2024-01-27T08:48:45;-1.00;99.90
33837;DHT22;20140;49.356;8.812;2024-01-27T08:51:10;-0.90;99.90
33837;DHT22;20140;49.356;8.812;2024-01-27T08:53:38;-0.90;99.90
33837;DHT22;20140;49.356;8.812;2024-01-27T08:56:04;-0.90;99.90
33837;DHT22;20140;49.356;8.812;2024-01-27T08:58:30;-0.80;99.90
33837;DHT22;20140;49.356;8.812;2024-01-27T09:00:56;-0.60;99.90
33837;DHT22;20140;49.356;8.812;2024-01-27T09:03:21;-0.60;99.90
33837;DHT22;20140;49.356;8.812;2024-01-27T09:05:47;-0.70;99.90
33837;DHT22;20140;49.356;8.812;2024-01-27T09:08:13;-0.70;99.90
33837;DHT22;20140;49.356;8.812;2024-01-27T09:10:38;-0.60;99.90
33837;DHT22;20140;49.356;8.812;2024-01-27T09:13:07;-0.60;99.90
33837;DHT22;20140;49.356;8.812;2024-01-27T09:15:32;-0.60;99.90
33837;DHT22;20140;49.356;8.812;2024-01-27T09:17:58;-0.50;99.90
33837;DHT22;20140;49.356;8.812;2024-01-27T09:20:23;-0.50;99.90
33837;DHT22;20140;49.356;8.812;2024-01-27T09:22:49;-0.50;99.90
33837;DHT22;20140;49.356;8.812;2024-01-27T09:25:16;-0.40;99.90
33837;DHT22;20140;49.356;8.812;2024-01-27T09:27:41;-0.30;99.90
33837;DHT22;20140;49.356;8.812;2024-01-27T09:30:07;-0.20;99.90
33837;DHT22;20140;49.356;8.812;2024-01-27T09:32:33;0.00;99.90
33837;DHT22;20140;49.356;8.812;2024-01-27T09:34:58;-0.10;99.90
33837;DHT22;20140;49.356;8.812;2024-01-27T09:37:24;0.00;99.90
33837;DHT22;20140;49.356;8.812;2024-01-27T09:39:49;0.00;99.90
33837;DHT22;20140;49.356;8.812;2024-01-27T09:42:15;0.00;99.90
33837;DHT22;20140;49.356;8.812;2024-01-27T09:44:43;0.00;99.90
33837;DHT22;20140;49.356;8.812;2024-01-27T09:47:11;0.00;99.90
33837;DHT22;20140;49.356;8.812;2024-01-27T09:49:39;0.10;99.90
33837;DHT22;20140;49.356;8.812;2024-01-27T09:52:06;0.20;99.90
33837;DHT22;20140;49.356;8.812;2024-01-27T09:54:32;0.30;99.90
33837;DHT22;20140;49.356;8.812;2024-01-27T09:56:58;0.40;99.90
33837;DHT22;20140;49.356;8.812;2024-01-27T09:59:25;0.40;99.90
33837;DHT22;20140;49.356;8.812;2024-01-27T10:01:52;0.40;99.90
33837;DHT22;20140;49.356;8.812;2024-01-27T10:04:19;0.40;99.90
33837;DHT22;20140;49.356;8.812;2024-01-27T10:06:47;0.40;99.90
33837;DHT22;20140;49.356;8.812;2024-01-27T10:09:14;0.50;99.90
33837;DHT22;20140;49.356;8.812;2024-01-27T10:11:45;0.50;99.90
33837;DHT22;20140;49.356;8.812;2024-01-27T10:14:11;0.60;99.90
33837;DHT22;20140;49.356;8.812;2024-01-27T10:16:46;0.70;99.90
33837;DHT22;20140;49.356;8.812;2024-01-27T10:19:18;0.70;99.90
33837;DHT22;20140;49.356;8.812;2024-01-27T10:21:45;0.80;99.90
33837;DHT22;20140;49.356;8.812;2024-01-27T10:24:11;0.90;99.90
33837;DHT22;20140;49.356;8.812;2024-01-27T10:26:37;1.30;99.90
33837;DHT22;20140;49.356;8.812;2024-01-27T10:29:03;1.50;99.90
33837;DHT22;20140;49.356;8.812;2024-01-27T10:31:38;1.60;99.90
33837;DHT22;20140;49.356;8.812;2024-01-27T10:34:03;1.90;99.90
33837;DHT22;20140;49.356;8.812;2024-01-27T10:36:43;2.00;99.90
33837;DHT22;20140;49.356;8.812;2024-01-27T10:39:22;1.90;99.90
33837;DHT22;20140;49.356;8.812;2024-01-27T10:41:49;1.80;99.90
33837;DHT22;20140;49.356;8.812;2024-01-27T10:44:17;1.80;99.90
33837;DHT22;20140;49.356;8.812;2024-01-27T10:46:45;1.90;99.90
33837;DHT22;20140;49.356;8.812;2024-01-27T10:49:15;2.00;99.90
33837;DHT22;20140;49.356;8.812;2024-01-27T10:51:54;2.00;99.90
33837;DHT22;20140;49.356;8.812;2024-01-27T10:54:25;2.00;99.90
33837;DHT22;20140;49.356;8.812;2024-01-27T10:56:53;2.20;99.90
33837;DHT22;20140;49.356;8.812;2024-01-27T10:59:21;2.40;99.90
33837;DHT22;20140;49.356;8.812;2024-01-27T11:01:49;2.50;99.90
33837;DHT22;20140;49.356;8.812;2024-01-27T11:04:19;2.50;99.90
33837;DHT22;20140;49.356;8.812;2024-01-27T11:06:47;2.50;99.90
33837;DHT22;20140;49.356;8.812;2024-01-27T11:09:13;2.60;99.90
33837;DHT22;20140;49.356;8.812;2024-01-27T11:11:43;2.70;99.90
33837;DHT22;20140;49.356;8.812;2024-01-27T11:14:13;2.80;99.90
33837;DHT22;20140;49.356;8.812;2024-01-27T11:16:39;3.00;99.90
33837;DHT22;20140;49.356;8.812;2024-01-27T11:19:10;3.30;99.90
33837;DHT22;20140;49.356;8.812;2024-01-27T11:21:37;3.60;99.90
33837;DHT22;20140;49.356;8.812;2024-01-27T11:24:13;3.90;99.90
33837;DHT22;20140;49.356;8.812;2024-01-27T11:26:38;4.10;99.90
33837;DHT22;20140;49.356;8.812;2024-01-27T11:29:07;4.30;99.90
33837;DHT22;20140;49.356;8.812;2024-01-27T11:31:35;4.40;99.90
33837;DHT22;20140;49.356;8.812;2024-01-27T11:34:00;4.60;99.90
33837;DHT22;20140;49.356;8.812;2024-01-27T11:36:26;4.60;99.90
33837;DHT22;20140;49.356;8.812;2024-01-27T11:38:53;4.60;99.90
33837;DHT22;20140;49.356;8.812;2024-01-27T11:41:26;4.60;99.90
33837;DHT22;20140;49.356;8.812;2024-01-27T11:43:56;4.70;99.90
33837;DHT22;20140;49.356;8.812;2024-01-27T11:46:22;5.10;99.90
33837;DHT22;20140;49.356;8.812;2024-01-27T11:48:50;5.20;99.90
33837;DHT22;20140;49.356;8.812;2024-01-27T11:51:17;5.00;99.90
33837;DHT22;20140;49.356;8.812;2024-01-27T11:53:44;5.00;99.90
33837;DHT22;20140;49.356;8.812;2024-01-27T11:56:10;5.10;99.90
33837;DHT22;20140;49.356;8.812;2024-01-27T11:58:36;5.10;99.90
33837;DHT22;20140;49.356;8.812;2024-01-27T12:01:01;5.20;99.90
33837;DHT22;20140;49.356;8.812;2024-01-27T12:03:27;5.30;99.90
33837;DHT22;20140;49.356;8.812;2024-01-27T12:05:54;5.40;99.90
33837;DHT22;20140;49.356;8.812;2024-01-27T12:08:20;5.30;99.90
33837;DHT22;20140;49.356;8.812;2024-01-27T12:10:45;5.50;99.90
33837;DHT22;20140;49.356;8.812;2024-01-27T12:13:11;5.60;99.90
33837;DHT22;20140;49.356;8.812;2024-01-27T12:15:37;5.60;99.90
33837;DHT22;20140;49.356;8.812;2024-01-27T12:18:04;5.80;99.90
33837;DHT22;20140;49.356;8.812;2024-01-27T12:20:30;6.10;99.90
33837;DHT22;20140;49.356;8.812;2024-01-27T12:23:05;6.40;99.90
33837;DHT22;20140;49.356;8.812;2024-01-27T12:25:31;6.50;99.90
33837;DHT22;20140;49.356;8.812;2024-01-27T12:27:57;6.70;99.90
33837;DHT22;20140;49.356;8.812;2024-01-27T12:30:27;6.90;99.90
33837;DHT22;20140;49.356;8.812;2024-01-27T12:32:52;6.90;99.90
33837;DHT22;20140;49.356;8.812;2024-01-27T12:35:18;7.10;99.90
33837;DHT22;20140;49.356;8.812;2024-01-27T12:37:44;7.20;99.90
33837;DHT22;20140;49.356;8.812;2024-01-27T12:40:19;7.60;99.90
33837;DHT22;20140;49.356;8.812;2024-01-27T12:42:46;8.40;99.90
33837;DHT22;20140;49.356;8.812;2024-01-27T12:45:11;8.80;99.90
33837;DHT22;20140;49.356;8.812;2024-01-27T12:47:37;9.30;99.90
33837;DHT22;20140;49.356;8.812;2024-01-27T12:50:03;9.60;99.90
33837;DHT22;20140;49.356;8.812;2024-01-27T12:52:29;10.20;99.90
33837;DHT22;20140;49.356;8.812;2024-01-27T12:54:54;10.30;99.90
33837;DHT22;20140;49.356;8.812;2024-01-27T12:57:20;10.60;99.90
33837;DHT22;20140;49.356;8.812;2024-01-27T12:59:45;11.50;99.90
33837;DHT22;20140;49.356;8.812;2024-01-27T13:02:11;12.00;99.90
33837;DHT22;20140;49.356;8.812;2024-01-27T13:04:37;12.80;99.90
33837;DHT22;20140;49.356;8.812;2024-01-27T13:07:02;13.30;99.90
33837;DHT22;20140;49.356;8.812;2024-01-27T13:09:28;14.50;99.90
33837;DHT22;20140;49.356;8.812;2024-01-27T13:11:53;15.90;99.50
33837;DHT22;20140;49.356;8.812;2024-01-27T13:14:19;16.80;94.80
33837;DHT22;20140;49.356;8.812;2024-01-27T13:16:47;17.00;92.60
33837;DHT22;20140;49.356;8.812;2024-01-27T13:19:12;16.60;92.50
33837;DHT22;20140;49.356;8.812;2024-01-27T13:21:38;15.70;91.60
33837;DHT22;20140;49.356;8.812;2024-01-27T13:24:05;16.10;92.80
33837;DHT22;20140;49.356;8.812;2024-01-27T13:26:32;16.10;92.40
33837;DHT22;20140;49.356;8.812;2024-01-27T13:29:01;16.00;91.80
33837;DHT22;20140;49.356;8.812;2024-01-27T13:31:27;16.30;92.60
33837;DHT22;20140;49.356;8.812;2024-01-27T13:33:52;16.10;93.00
33837;DHT22;20140;49.356;8.812;2024-01-27T13:36:18;16.30;90.80
33837;DHT22;20140;49.356;8.812;2024-01-27T13:38:43;15.90;88.30
33837;DHT22;20140;49.356;8.812;2024-01-27T13:41:09;16.60;91.10
33837;DHT22;20140;49.356;8.812;2024-01-27T13:43:34;17.10;86.30
33837;DHT22;20140;49.356;8.812;2024-01-27T13:46:00;17.30;84.00
33837;DHT22;20140;49.356;8.812;2024-01-27T13:48:26;16.80;80.10
33837;DHT22;20140;49.356;8.812;2024-01-27T13:50:52;16.00;83.30
33837;DHT22;20140;49.356;8.812;2024-01-27T13:53:18;16.70;82.80
33837;DHT22;20140;49.356;8.812;2024-01-27T13:55:43;17.90;77.30
33837;DHT22;20140;49.356;8.812;2024-01-27T13:58:10;18.30;73.70
33837;DHT22;20140;49.356;8.812;2024-01-27T14:00:35;16.90;70.50
33837;DHT22;20140;49.356;8.812;2024-01-27T14:03:01;17.90;76.00
33837;DHT22;20140;49.356;8.812;2024-01-27T14:05:26;17.50;67.20
33837;DHT22;20140;49.356;8.812;2024-01-27T14:07:52;17.50;74.00
33837;DHT22;20140;49.356;8.812;2024-01-27T14:10:17;16.80;74.10
33837;DHT22;20140;49.356;8.812;2024-01-27T14:12:43;17.70;74.20
33837;DHT22;20140;49.356;8.812;2024-01-27T14:15:09;18.20;72.70
33837;DHT22;20140;49.356;8.812;2024-01-27T14:17:35;18.20;70.10
33837;DHT22;20140;49.356;8.812;2024-01-27T14:20:02;17.90;72.10
33837;DHT22;20140;49.356;8.812;2024-01-27T14:22:28;17.80;72.50
33837;DHT22;20140;49.356;8.812;2024-01-27T14:24:53;17.70;73.90
33837;DHT22;20140;49.356;8.812;2024-01-27T14:27:19;17.40;74.90
33837;DHT22;20140;49.356;8.812;2024-01-27T14:29:54;17.40;76.10
33837;DHT22;20140;49.356;8.812;2024-01-27T14:32:21;17.00;74.90
33837;DHT22;20140;49.356;8.812;2024-01-27T14:34:46;16.40;76.80
33837;DHT22;20140;49.356;8.812;2024-01-27T14:37:12;15.10;78.10
33837;DHT22;20140;49.356;8.812;2024-01-27T14:39:39;15.90;81.80
33837;DHT22;20140;49.356;8.812;2024-01-27T14:42:07;14.70;84.50
33837;DHT22;20140;49.356;8.812;2024-01-27T14:44:33;12.90;87.90
33837;DHT22;20140;49.356;8.812;2024-01-27T14:46:59;13.10;91.20
33837;DHT22;20140;49.356;8.812;2024-01-27T14:49:24;13.10;90.80
33837;DHT22;20140;49.356;8.812;2024-01-27T14:51:50;12.40;86.90
33837;DHT22;20140;49.356;8.812;2024-01-27T14:54:16;12.50;88.80
33837;DHT22;20140;49.356;8.812;2024-01-27T14:56:42;13.40;85.70
33837;DHT22;20140;49.356;8.812;2024-01-27T14:59:07;13.90;84.70
33837;DHT22;20140;49.356;8.812;2024-01-27T15:01:33;13.90;83.80
33837;DHT22;20140;49.356;8.812;2024-01-27T15:03:58;13.90;84.30
33837;DHT22;20140;49.356;8.812;2024-01-27T15:06:26;13.60;79.90
33837;DHT22;20140;49.356;8.812;2024-01-27T15:08:52;13.30;82.80
33837;DHT22;20140;49.356;8.812;2024-01-27T15:11:18;13.30;82.50
33837;DHT22;20140;49.356;8.812;2024-01-27T15:13:44;13.20;82.60
33837;DHT22;20140;49.356;8.812;2024-01-27T15:16:09;12.40;83.20
33837;DHT22;20140;49.356;8.812;2024-01-27T15:18:35;12.50;82.80
33837;DHT22;20140;49.356;8.812;2024-01-27T15:21:05;12.40;87.20
33837;DHT22;20140;49.356;8.812;2024-01-27T15:23:31;12.00;89.40
33837;DHT22;20140;49.356;8.812;2024-01-27T15:25:59;11.80;88.30
33837;DHT22;20140;49.356;8.812;2024-01-27T15:28:26;11.90;87.50
33837;DHT22;20140;49.356;8.812;2024-01-27T15:30:52;11.90;89.30
33837;DHT22;20140;49.356;8.812;2024-01-27T15:33:18;11.70;90.60
33837;DHT22;20140;49.356;8.812;2024-01-27T15:35:43;11.60;91.00
33837;DHT22;20140;49.356;8.812;2024-01-27T15:38:09;11.40;92.80
33837;DHT22;20140;49.356;8.812;2024-01-27T15:40:34;11.10;93.40
33837;DHT22;20140;49.356;8.812;2024-01-27T15:43:00;10.50;94.40
33837;DHT22;20140;49.356;8.812;2024-01-27T15:45:26;10.00;99.20
33837;DHT22;20140;49.356;8.812;2024-01-27T15:47:52;9.50;99.90